Time;durP1;ratioP1;P1;durP2;ratioP2;P2;SDS_P1;SDS_P2;PMS_P1;PMS_P2;Temp;Humidity;BMP_temperature;BMP_pressure;BME280_temperature;BME280_humidity;BME280_pressure;Samples;Min_cycle;Max_cycle;Signal;HPM_P1;HPM_P2
2023/08/26 00:02:59;;;;;;;2.28;1.00;;;27.30;63.70;;;;;;10523271;28;20040;-31
2023/08/26 00:08:01;;;;;;;2.30;0.80;;;27.30;63.90;;;;;;10520193;28;20048;-37
2023/08/26 00:13:05;;;;;;;2.10;0.88;;;27.30;63.80;;;;;;10519033;28;20389;-34
2023/08/26 00:18:08;;;;;;;1.92;0.75;;;27.20;63.90;;;;;;10526322;28;20472;-29
2023/08/26 00:23:10;;;;;;;2.72;0.82;;;27.20;64.10;;;;;;10517192;28;20532;-33
2023/08/26 00:28:13;;;;;;;2.88;1.00;;;27.20;64.20;;;;;;10537489;28;20071;-32
2023/08/26 00:33:15;;;;;;;2.83;0.95;;;27.20;64.30;;;;;;10522396;28;20587;-35
2023/08/26 00:38:17;;;;;;;1.25;0.80;;;27.10;64.40;;;;;;10519818;28;20039;-34
2023/08/26 00:43:20;;;;;;;3.67;1.05;;;27.10;64.60;;;;;;10517290;28;20063;-38
2023/08/26 00:48:22;;;;;;;1.50;0.70;;;26.90;64.80;;;;;;10529788;28;20040;-34
2023/08/26 00:53:24;;;;;;;1.85;0.60;;;26.90;64.90;;;;;;10532407;28;20105;-33
2023/08/26 00:58:28;;;;;;;2.45;0.90;;;26.90;65.20;;;;;;10534235;28;20048;-35
2023/08/26 01:03:30;;;;;;;3.08;0.80;;;26.80;65.40;;;;;;10536277;28;20074;-31
2023/08/26 01:08:32;;;;;;;1.90;0.80;;;26.80;65.30;;;;;;10518481;28;20059;-33
2023/08/26 01:13:42;;;;;;;1.60;0.90;;;26.30;66.50;;;;;;10523614;28;20098;-33
2023/08/26 01:18:46;;;;;;;1.55;0.75;;;26.70;65.60;;;;;;10528717;28;20052;-31
2023/08/26 01:23:50;;;;;;;3.70;0.75;;;26.80;65.50;;;;;;10526731;28;20036;-34
2023/08/26 01:28:52;;;;;;;4.95;1.05;;;26.80;65.30;;;;;;10515364;28;20587;-35
2023/08/26 01:33:59;;;;;;;3.60;0.60;;;26.70;65.40;;;;;;10519048;28;20416;-38
2023/08/26 01:39:03;;;;;;;1.00;0.57;;;26.60;65.80;;;;;;10527331;28;20559;-34
2023/08/26 01:44:06;;;;;;;2.85;0.85;;;26.40;66.40;;;;;;10531648;28;20040;-34
2023/08/26 01:49:07;;;;;;;5.18;1.00;;;26.50;66.40;;;;;;10533423;28;20370;-34
2023/08/26 01:54:11;;;;;;;1.50;0.70;;;26.40;66.50;;;;;;10532534;28;20097;-31
2023/08/26 01:59:12;;;;;;;2.45;0.68;;;26.20;66.80;;;;;;10526667;28;20060;-31
2023/08/26 02:04:14;;;;;;;5.47;0.95;;;26.20;67.20;;;;;;10530933;28;20052;-35
2023/08/26 02:09:17;;;;;;;2.00;0.60;;;26.40;66.10;;;;;;10529620;28;20109;-31
2023/08/26 02:14:19;;;;;;;1.70;0.65;;;26.30;66.80;;;;;;10527036;28;20101;-38
2023/08/26 02:19:21;;;;;;;2.67;1.00;;;26.50;66.40;;;;;;10532862;28;20440;-32
2023/08/26 02:24:25;;;;;;;2.40;0.80;;;26.30;66.60;;;;;;10532504;28;20048;-35
2023/08/26 02:29:27;;;;;;;1.73;0.73;;;26.10;66.70;;;;;;10533279;28;20052;-31
2023/08/26 02:34:29;;;;;;;1.92;0.77;;;26.30;66.70;;;;;;10532875;28;20075;-36
2023/08/26 02:39:32;;;;;;;2.20;0.80;;;26.20;67.50;;;;;;10531953;28;20040;-32
2023/08/26 02:44:34;;;;;;;3.03;0.77;;;26.50;66.50;;;;;;10529639;28;20048;-37
2023/08/26 02:49:36;;;;;;;2.17;0.70;;;26.40;66.80;;;;;;10503237;28;20044;-34
2023/08/26 02:54:39;;;;;;;3.47;0.85;;;26.40;66.60;;;;;;10537356;28;20120;-32
2023/08/26 03:15:31;;;;;;;3.53;0.80;;;26.00;66.40;;;;;;10597745;27;20164;-32
2023/08/26 03:20:33;;;;;;;2.95;0.80;;;26.20;67.20;;;;;;10568143;28;20089;-31
2023/08/26 03:25:38;;;;;;;1.10;0.55;;;26.20;66.70;;;;;;10562880;28;20040;-33
2023/08/26 03:30:41;;;;;;;2.33;0.70;;;26.20;66.70;;;;;;10562568;28;20048;-30
2023/08/26 03:35:43;;;;;;;2.08;0.70;;;26.20;67.80;;;;;;10567523;28;20101;-30
2023/08/26 03:40:44;;;;;;;2.72;0.70;;;26.00;67.00;;;;;;10568620;28;20079;-31
2023/08/26 03:45:48;;;;;;;2.20;0.80;;;25.70;69.10;;;;;;10570022;28;20039;-31
2023/08/26 03:50:51;;;;;;;2.25;0.73;;;25.80;68.30;;;;;;10566924;28;20077;-34
2023/08/26 03:55:52;;;;;;;3.33;0.88;;;26.00;67.70;;;;;;10558335;28;20567;-32
2023/08/26 04:01:02;;;;;;;1.25;0.60;;;25.90;67.40;;;;;;10566168;28;20130;-35
2023/08/26 04:06:05;;;;;;;1.27;0.60;;;25.90;67.40;;;;;;10568900;28;20044;-35
2023/08/26 04:11:07;;;;;;;2.83;0.95;;;26.00;67.60;;;;;;10565979;28;20088;-31
2023/08/26 04:16:11;;;;;;;1.63;0.60;;;26.00;66.60;;;;;;10565582;28;20044;-32
2023/08/26 04:21:13;;;;;;;2.88;0.70;;;25.80;68.70;;;;;;10566210;28;20477;-36
2023/08/26 04:26:14;;;;;;;3.60;0.80;;;26.00;67.60;;;;;;10540855;28;20207;-32
2023/08/26 04:31:18;;;;;;;2.05;0.65;;;25.80;67.70;;;;;;10536844;28;20159;-32
2023/08/26 04:36:20;;;;;;;2.72;0.68;;;25.80;67.80;;;;;;10537318;28;20536;-32
2023/08/26 04:41:22;;;;;;;3.58;1.00;;;25.80;68.00;;;;;;10527303;28;20083;-35
2023/08/26 04:46:25;;;;;;;4.95;0.95;;;25.60;68.50;;;;;;10536238;28;20048;-33
2023/08/26 04:51:27;;;;;;;3.13;0.50;;;25.40;69.40;;;;;;10535151;28;20059;-32
2023/08/26 04:56:28;;;;;;;1.23;0.60;;;25.80;68.00;;;;;;10536264;28;20075;-37
2023/08/26 05:01:32;;;;;;;4.95;1.17;;;25.10;70.30;;;;;;10534953;28;20473;-40
2023/08/26 05:06:34;;;;;;;2.63;0.93;;;24.80;68.80;;;;;;10537436;28;20055;-38
2023/08/26 05:11:35;;;;;;;8.93;1.60;;;25.20;70.30;;;;;;10530026;28;20089;-38
2023/08/26 05:16:39;;;;;;;;;;;24.70;69.20;;;;;;10534930;28;20463;-35
2023/08/26 05:21:40;;;;;;;1.55;0.68;;;25.10;70.60;;;;;;10534786;28;19949;-33
2023/08/26 05:26:43;;;;;;;5.07;0.80;;;25.40;68.70;;;;;;10534572;28;20504;-37
2023/08/26 05:31:47;;;;;;;1.95;0.88;;;25.40;69.30;;;;;;10529389;28;20073;-39
2023/08/26 05:36:49;;;;;;;1.67;0.75;;;25.30;67.80;;;;;;10533244;28;20079;-35
2023/08/26 05:41:51;;;;;;;2.08;0.60;;;25.50;68.40;;;;;;10534064;28;20127;-38
2023/08/26 05:46:55;;;;;;;2.38;1.20;;;25.80;67.80;;;;;;10533042;28;20055;-35
2023/08/26 05:51:57;;;;;;;1.83;0.82;;;25.60;68.50;;;;;;10531377;28;20504;-33
2023/08/26 05:56:59;;;;;;;3.75;0.65;;;25.30;69.20;;;;;;10525926;28;20129;-36
2023/08/26 06:02:02;;;;;;;1.50;0.50;;;25.50;68.60;;;;;;10538779;28;20089;-35
2023/08/26 06:07:04;;;;;;;3.15;1.08;;;25.80;67.70;;;;;;10535740;28;20048;-34
2023/08/26 06:12:07;;;;;;;5.13;1.00;;;25.90;67.40;;;;;;10532690;28;20059;-34
2023/08/26 06:17:10;;;;;;;2.50;1.13;;;25.80;67.60;;;;;;10532331;28;20457;-34
2023/08/26 06:22:12;;;;;;;3.92;0.60;;;25.60;68.30;;;;;;10532176;28;20059;-37
2023/08/26 06:27:14;;;;;;;3.22;0.75;;;25.70;68.00;;;;;;10532399;28;20536;-28
2023/08/26 06:32:18;;;;;;;3.40;0.85;;;25.30;68.90;;;;;;10525758;28;20917;-34
2023/08/26 06:37:19;;;;;;;2.33;0.80;;;25.10;68.90;;;;;;10531758;28;20047;-32
2023/08/26 06:42:21;;;;;;;3.97;0.93;;;24.70;69.50;;;;;;10530804;28;20044;-37
2023/08/26 06:47:24;;;;;;;1.55;0.60;;;25.20;69.00;;;;;;10529530;28;20044;-34
2023/08/26 06:52:27;;;;;;;3.92;0.93;;;25.00;70.30;;;;;;10509554;28;20353;-34
2023/08/26 06:57:29;;;;;;;4.07;1.00;;;23.50;71.40;;;;;;10530490;28;20079;-33
2023/08/26 07:02:32;;;;;;;1.92;0.82;;;22.10;87.80;;;;;;10527862;28;20472;-35
2023/08/26 07:07:36;;;;;;;4.63;1.48;;;22.60;83.90;;;;;;10533158;28;20070;-32
2023/08/26 07:12:38;;;;;;;4.80;1.17;;;21.30;89.50;;;;;;10524634;28;20147;-34
2023/08/26 07:17:41;;;;;;;1.52;0.50;;;21.50;91.00;;;;;;10532533;28;20056;-32
2023/08/26 07:22:43;;;;;;;3.40;0.80;;;21.20;91.50;;;;;;10528544;28;20048;-36
2023/08/26 07:27:45;;;;;;;4.95;0.90;;;21.80;89.00;;;;;;10526941;28;20665;-34
2023/08/26 07:32:49;;;;;;;5.63;0.50;;;23.20;80.80;;;;;;10529933;28;20063;-33
2023/08/26 07:37:51;;;;;;;1.08;0.43;;;21.20;90.70;;;;;;10530250;28;20530;-35
2023/08/26 07:42:52;;;;;;;1.60;0.60;;;22.70;87.50;;;;;;10528945;28;20040;-34
2023/08/26 07:47:57;;;;;;;3.28;0.68;;;22.40;86.20;;;;;;10526857;28;20076;-35
2023/08/26 07:52:59;;;;;;;2.15;0.77;;;23.40;80.20;;;;;;10525378;28;20060;-35
2023/08/26 07:58:00;;;;;;;1.63;0.60;;;22.20;86.90;;;;;;10531433;28;20176;-37
2023/08/26 08:03:04;;;;;;;3.05;0.77;;;23.00;82.20;;;;;;10531741;28;20040;-36
2023/08/26 08:08:06;;;;;;;1.45;0.55;;;21.30;90.90;;;;;;10533700;28;20048;-34
2023/08/26 08:13:08;;;;;;;;;;;21.90;90.40;;;;;;10533770;28;20148;-37
2023/08/26 08:18:12;;;;;;;1.83;0.77;;;21.50;91.70;;;;;;10537461;28;19939;-34
2023/08/26 08:23:14;;;;;;;2.25;1.17;;;21.00;91.00;;;;;;10537913;28;20048;-31
2023/08/26 08:28:16;;;;;;;;;;;21.40;90.40;;;;;;10537861;28;20123;-38
2023/08/26 08:33:19;;;;;;;4.10;2.77;;;22.70;81.50;;;;;;10537976;28;19924;-33
2023/08/26 08:38:21;;;;;;;5.38;2.03;;;23.90;74.70;;;;;;10547414;28;20036;-35
2023/08/26 08:43:25;;;;;;;4.35;2.30;;;22.60;81.00;;;;;;10530028;28;20648;-41
2023/08/26 08:48:28;;;;;;;7.05;2.47;;;21.40;90.70;;;;;;10537600;28;20047;-39
2023/08/26 08:53:31;;;;;;;7.43;2.75;;;22.90;84.70;;;;;;10535797;28;20076;-38
2023/08/26 08:58:34;;;;;;;3.22;0.80;;;24.70;72.60;;;;;;10536456;28;20566;-38
2023/08/26 09:03:38;;;;;;;5.35;2.03;;;23.20;75.50;;;;;;10535992;28;20390;-32
2023/08/26 09:08:40;;;;;;;1.48;0.90;;;21.20;92.10;;;;;;10538427;28;20049;-31
2023/08/26 09:13:42;;;;;;;;;;;23.50;72.90;;;;;;10529078;28;20484;-31
2023/08/26 09:18:45;;;;;;;6.50;1.55;;;23.10;77.20;;;;;;10536713;28;19920;-35
2023/08/26 09:23:50;;;;;;;5.65;2.10;;;23.50;78.70;;;;;;10531970;28;20052;-36
2023/08/26 09:28:52;;;;;;;3.97;1.75;;;23.20;77.90;;;;;;10534847;28;20112;-36
2023/08/26 09:34:01;;;;;;;4.78;1.35;;;22.60;84.80;;;;;;10539675;28;20048;-39
2023/08/26 09:39:03;;;;;;;4.10;1.55;;;21.50;85.50;;;;;;10538403;28;20052;-31
2023/08/26 09:44:05;;;;;;;;;;;21.80;89.60;;;;;;10538464;28;20105;-32
2023/08/26 09:49:12;;;;;;;6.45;1.38;;;21.80;84.40;;;;;;10542178;28;19959;-33
2023/08/26 09:54:16;;;;;;;3.83;1.70;;;20.50;92.60;;;;;;10533266;28;20044;-31
2023/08/26 09:59:18;;;;;;;5.20;1.92;;;22.10;90.10;;;;;;10525433;28;20404;-34
2023/08/26 10:04:28;;;;;;;3.90;1.38;;;21.40;90.50;;;;;;10533428;28;20083;-35
2023/08/26 10:09:36;;;;;;;4.72;1.20;;;21.90;86.30;;;;;;10535372;28;20078;-34
2023/08/26 10:14:41;;;;;;;2.22;0.90;;;22.40;85.00;;;;;;10531344;28;20060;-35
2023/08/26 10:19:45;;;;;;;4.40;0.82;;;23.10;77.60;;;;;;10533723;28;20532;-30
2023/08/26 10:24:47;;;;;;;3.88;1.00;;;23.10;73.30;;;;;;10532143;28;20433;-32
2023/08/26 10:29:50;;;;;;;2.88;1.00;;;21.60;82.60;;;;;;10533238;28;20043;-35
2023/08/26 10:34:58;;;;;;;1.88;0.73;;;23.10;81.30;;;;;;10532426;28;20088;-35
2023/08/26 10:40:06;;;;;;;4.15;0.90;;;21.80;88.10;;;;;;10530892;28;20052;-30
2023/08/26 10:45:14;;;;;;;2.65;0.90;;;21.60;85.30;;;;;;10532075;28;20566;-31
2023/08/26 10:50:19;;;;;;;2.97;0.65;;;20.70;90.70;;;;;;10531390;28;20404;-32
2023/08/26 10:55:22;;;;;;;3.00;0.70;;;20.60;90.40;;;;;;10529177;28;20052;-34
2023/08/26 11:00:24;;;;;;;2.00;0.57;;;20.90;90.40;;;;;;10531846;28;20044;-35
2023/08/26 11:05:27;;;;;;;1.67;0.73;;;21.10;90.10;;;;;;10538163;28;20043;-37
2023/08/26 11:10:31;;;;;;;3.17;0.73;;;20.90;93.60;;;;;;10534832;28;20518;-34
2023/08/26 11:15:36;;;;;;;1.65;0.50;;;20.50;90.90;;;;;;10528322;28;20102;-37
2023/08/26 11:20:40;;;;;;;3.95;0.80;;;20.10;92.00;;;;;;10531050;28;20040;-32
2023/08/26 11:25:42;;;;;;;1.75;0.88;;;21.10;89.00;;;;;;10530080;28;20125;-31
2023/08/26 11:30:46;;;;;;;6.13;0.95;;;21.20;92.10;;;;;;10531322;28;20082;-35
2023/08/26 11:35:50;;;;;;;2.75;0.70;;;20.70;90.60;;;;;;10536582;28;20048;-37
2023/08/26 11:40:52;;;;;;;4.13;0.65;;;20.90;91.90;;;;;;10539711;28;20405;-36
2023/08/26 11:45:55;;;;;;;3.75;1.15;;;21.00;90.00;;;;;;10541607;28;20044;-38
2023/08/26 11:51:00;;;;;;;3.08;0.57;;;21.30;91.80;;;;;;10540090;28;20481;-32
2023/08/26 11:56:02;;;;;;;1.25;0.45;;;21.50;86.20;;;;;;10539135;28;20054;-37
2023/08/26 12:01:05;;;;;;;1.30;0.50;;;21.70;85.20;;;;;;10538072;28;20450;-34
2023/08/26 12:06:09;;;;;;;6.40;1.08;;;21.50;85.80;;;;;;10540688;28;20132;-34
2023/08/26 12:11:10;;;;;;;4.35;0.50;;;22.00;87.10;;;;;;10538187;28;20133;-35
2023/08/26 12:16:13;;;;;;;3.53;0.57;;;21.90;86.90;;;;;;10536658;28;20044;-31
2023/08/26 12:21:16;;;;;;;2.22;0.60;;;22.50;74.80;;;;;;10537730;28;20083;-33
2023/08/26 12:26:18;;;;;;;5.32;0.70;;;21.90;84.80;;;;;;10538208;28;20040;-31
2023/08/26 12:31:20;;;;;;;3.65;0.60;;;22.90;77.80;;;;;;10537495;28;20048;-35
2023/08/26 12:36:23;;;;;;;3.38;0.40;;;23.30;76.40;;;;;;10537300;28;20087;-33
2023/08/26 12:41:25;;;;;;;3.00;0.85;;;22.20;84.50;;;;;;10537587;28;20075;-36
2023/08/26 12:46:26;;;;;;;2.60;0.60;;;22.10;76.00;;;;;;10532095;28;20048;-35
2023/08/26 12:51:30;;;;;;;1.25;0.77;;;22.90;82.00;;;;;;10535697;28;20485;-38
2023/08/26 12:56:32;;;;;;;2.83;0.75;;;23.60;81.20;;;;;;10536653;28;20075;-40
2023/08/26 13:01:34;;;;;;;;;;;23.10;78.10;;;;;;10537411;28;20090;-33
2023/08/26 13:06:37;;;;;;;1.85;0.60;;;23.20;74.80;;;;;;10538797;28;19959;-33
2023/08/26 13:11:39;;;;;;;2.97;0.85;;;22.60;78.40;;;;;;10534926;28;20489;-35
2023/08/26 13:16:41;;;;;;;3.15;1.05;;;22.90;75.90;;;;;;10548044;28;20087;-34
2023/08/26 13:21:44;;;;;;;5.80;1.10;;;23.00;83.10;;;;;;10533359;28;20044;-32
2023/08/26 13:26:46;;;;;;;3.17;0.60;;;23.00;78.30;;;;;;10533979;28;20529;-34
2023/08/26 13:31:48;;;;;;;7.97;1.25;;;23.70;78.50;;;;;;10535545;28;20052;-33
2023/08/26 13:36:51;;;;;;;3.60;0.70;;;24.10;69.40;;;;;;10535319;28;20198;-35
2023/08/26 13:41:55;;;;;;;2.70;1.02;;;23.40;73.30;;;;;;10534338;28;20056;-37
2023/08/26 13:46:57;;;;;;;4.88;1.13;;;24.70;76.10;;;;;;10536205;28;20048;-35
2023/08/26 13:52:00;;;;;;;4.05;1.55;;;25.00;71.20;;;;;;10534275;28;20493;-36
2023/08/26 13:57:02;;;;;;;3.75;0.45;;;24.00;65.90;;;;;;10539664;28;20476;-33
2023/08/26 14:02:04;;;;;;;;;;;24.70;77.50;;;;;;10526640;28;20492;-37
2023/08/26 14:07:07;;;;;;;2.88;0.65;;;24.10;70.00;;;;;;10535264;28;19924;-36
2023/08/26 14:12:09;;;;;;;1.33;0.47;;;25.60;68.20;;;;;;10522174;28;20049;-32
2023/08/26 14:17:11;;;;;;;4.57;0.60;;;25.80;67.50;;;;;;10525076;28;20052;-33
2023/08/26 14:22:14;;;;;;;3.17;0.70;;;24.60;67.60;;;;;;10533544;28;20082;-31
2023/08/26 14:27:16;;;;;;;5.65;0.90;;;25.50;66.20;;;;;;10532673;28;20044;-33
2023/08/26 14:32:18;;;;;;;4.47;0.90;;;25.70;65.60;;;;;;10532627;28;20066;-35
2023/08/26 14:37:22;;;;;;;1.98;0.63;;;25.60;69.00;;;;;;10532570;28;20055;-37
2023/08/26 14:42:24;;;;;;;2.75;0.82;;;25.60;66.10;;;;;;10532457;28;20118;-38
2023/08/26 14:47:25;;;;;;;2.28;0.60;;;26.20;68.80;;;;;;10536594;28;20048;-40
2023/08/26 14:52:29;;;;;;;1.48;0.63;;;25.80;70.30;;;;;;10527919;28;20040;-32
2023/08/26 14:57:30;;;;;;;2.38;0.88;;;26.50;68.30;;;;;;10535191;28;20101;-33
2023/08/26 15:02:33;;;;;;;1.65;0.70;;;26.50;63.90;;;;;;10532149;28;20097;-40
2023/08/26 15:07:36;;;;;;;6.32;0.75;;;26.90;65.20;;;;;;10531532;28;20543;-34
2023/08/26 15:12:38;;;;;;;1.67;0.55;;;26.90;64.30;;;;;;10531382;28;20048;-32
2023/08/26 15:17:40;;;;;;;1.33;0.50;;;26.60;70.00;;;;;;10530062;28;20462;-34
2023/08/26 15:22:43;;;;;;;1.50;0.70;;;26.90;72.30;;;;;;10537043;28;20142;-36
2023/08/26 15:27:45;;;;;;;2.92;0.73;;;26.90;67.80;;;;;;10533006;28;20048;-34
2023/08/26 15:32:47;;;;;;;1.58;0.50;;;26.90;60.40;;;;;;10531218;28;20109;-36
2023/08/26 15:37:50;;;;;;;2.70;1.27;;;26.40;63.30;;;;;;10529471;28;20785;-34
2023/08/26 15:42:55;;;;;;;4.13;0.70;;;27.30;58.80;;;;;;10524433;28;20051;-31
2023/08/26 15:47:58;;;;;;;1.77;0.50;;;27.90;67.70;;;;;;10533125;28;20051;-33
2023/08/26 15:53:01;;;;;;;5.65;0.77;;;27.20;60.70;;;;;;10530986;28;20044;-32
2023/08/26 15:58:03;;;;;;;3.05;0.60;;;27.20;56.90;;;;;;10530364;28;20101;-34
2023/08/26 16:03:06;;;;;;;4.72;0.50;;;27.20;57.20;;;;;;10548795;28;20040;-33
2023/08/26 16:08:09;;;;;;;5.80;0.68;;;26.40;74.10;;;;;;10532210;28;20052;-32
2023/08/26 16:13:11;;;;;;;2.80;0.93;;;27.40;73.60;;;;;;10530221;28;20056;-30
2023/08/26 16:18:13;;;;;;;1.92;0.60;;;27.20;59.20;;;;;;10530868;28;20040;-34
2023/08/26 16:23:16;;;;;;;3.95;0.65;;;27.30;74.60;;;;;;10536533;28;20510;-37
2023/08/26 16:28:18;;;;;;;2.08;0.60;;;27.10;71.80;;;;;;10537572;28;20075;-34
2023/08/26 16:33:20;;;;;;;4.38;0.88;;;28.50;66.30;;;;;;10537459;28;20056;-34
2023/08/26 16:38:24;;;;;;;4.30;0.90;;;26.30;70.00;;;;;;10537259;28;20047;-40
2023/08/26 16:43:26;;;;;;;3.55;1.00;;;26.80;81.20;;;;;;10541188;28;20060;-41
2023/08/26 16:48:27;;;;;;;3.45;1.25;;;25.40;82.20;;;;;;10536826;28;20101;-32
2023/08/26 16:53:31;;;;;;;1.73;0.68;;;26.10;70.70;;;;;;10536205;28;20536;-35
2023/08/26 16:58:32;;;;;;;5.00;0.80;;;26.60;65.30;;;;;;10536412;28;20082;-34
2023/08/26 17:03:34;;;;;;;3.50;0.55;;;26.80;65.60;;;;;;10536678;28;20513;-32
2023/08/26 17:08:37;;;;;;;2.85;0.85;;;25.20;81.30;;;;;;10539226;28;20090;-32
2023/08/26 17:13:40;;;;;;;7.93;0.60;;;25.70;66.60;;;;;;10541035;28;20060;-33
2023/08/26 17:18:42;;;;;;;4.47;0.70;;;26.30;70.50;;;;;;10534836;28;20050;-32
2023/08/26 17:23:45;;;;;;;2.42;0.70;;;27.00;65.30;;;;;;10534072;28;20093;-33
2023/08/26 17:28:47;;;;;;;3.28;0.77;;;27.80;71.50;;;;;;10524302;28;20068;-32
2023/08/26 17:33:49;;;;;;;5.25;0.80;;;27.20;71.00;;;;;;10530739;28;20080;-36
2023/08/26 17:38:52;;;;;;;1.27;0.60;;;27.30;78.50;;;;;;10527984;28;20834;-33
2023/08/26 17:43:54;;;;;;;3.28;1.00;;;28.10;72.50;;;;;;10533366;28;20056;-37
2023/08/26 17:48:56;;;;;;;1.65;0.60;;;28.40;71.70;;;;;;10535091;28;20500;-35
2023/08/26 17:54:00;;;;;;;11.00;2.50;;;28.20;71.30;;;;;;10533557;28;20109;-41
2023/08/26 17:59:02;;;;;;;2.03;0.65;;;28.40;72.70;;;;;;10534010;28;20056;-41
2023/08/26 18:04:04;;;;;;;4.05;0.77;;;28.70;71.30;;;;;;10533841;28;20048;-32
2023/08/26 18:09:07;;;;;;;2.65;0.98;;;28.50;71.60;;;;;;10535001;28;20135;-34
2023/08/26 18:14:09;;;;;;;4.85;0.65;;;28.10;76.00;;;;;;10531425;28;20070;-33
2023/08/26 18:19:11;;;;;;;1.55;0.70;;;28.10;62.40;;;;;;10532518;28;20534;-34
2023/08/26 18:24:14;;;;;;;1.50;0.77;;;28.00;64.20;;;;;;10533419;28;20707;-32
2023/08/26 18:29:16;;;;;;;1.70;0.80;;;28.70;71.30;;;;;;10533420;28;20075;-30
2023/08/26 18:34:18;;;;;;;4.25;1.20;;;28.50;71.90;;;;;;10532259;28;20051;-35
2023/08/26 18:39:21;;;;;;;5.30;0.90;;;28.00;67.50;;;;;;10511884;28;20122;-29
2023/08/26 18:44:23;;;;;;;4.13;1.08;;;28.60;70.20;;;;;;10519645;28;20112;-34
2023/08/26 18:49:25;;;;;;;0.88;0.68;;;27.60;64.60;;;;;;10536800;28;20076;-33
2023/08/26 18:54:28;;;;;;;1.80;0.98;;;28.10;71.70;;;;;;10532068;28;20051;-34
2023/08/26 18:59:30;;;;;;;1.83;1.10;;;28.60;69.00;;;;;;10531895;28;20117;-34
2023/08/26 19:04:32;;;;;;;2.20;1.50;;;28.80;68.60;;;;;;10531805;28;20121;-32
2023/08/26 19:09:36;;;;;;;2.00;1.55;;;28.70;67.90;;;;;;10533245;28;20120;-32
2023/08/26 19:14:37;;;;;;;1.98;1.70;;;28.40;68.40;;;;;;10527600;28;20500;-32
2023/08/26 19:19:40;;;;;;;5.47;2.55;;;28.50;68.20;;;;;;10531118;28;20623;-38
2023/08/26 19:24:43;;;;;;;3.35;2.63;;;28.50;67.20;;;;;;10531125;28;20048;-35
2023/08/26 19:29:44;;;;;;;5.53;3.28;;;28.50;67.00;;;;;;10531770;28;20093;-32
2023/08/26 19:34:46;;;;;;;8.15;3.40;;;28.50;66.90;;;;;;10530648;28;20052;-34
2023/08/26 19:39:50;;;;;;;5.47;3.60;;;28.40;66.70;;;;;;10537865;28;20056;-37
2023/08/26 19:44:52;;;;;;;4.97;3.83;;;28.40;66.60;;;;;;10531213;28;20474;-32
2023/08/26 19:49:54;;;;;;;6.00;4.03;;;28.30;66.40;;;;;;10530523;28;20090;-37
2023/08/26 19:54:57;;;;;;;4.57;3.97;;;28.30;66.40;;;;;;10545990;28;20482;-35
2023/08/26 19:59:59;;;;;;;6.32;3.70;;;28.30;66.20;;;;;;10534812;28;20036;-35
2023/08/26 20:05:01;;;;;;;6.10;3.72;;;28.20;66.00;;;;;;10537542;28;20048;-35
2023/08/26 20:10:05;;;;;;;3.88;3.25;;;28.20;66.10;;;;;;10538724;28;20052;-35
2023/08/26 20:15:08;;;;;;;4.50;3.20;;;28.20;65.70;;;;;;10536336;28;20151;-32
2023/08/26 20:20:10;;;;;;;3.15;2.38;;;28.10;65.60;;;;;;10542784;28;20489;-32
2023/08/26 20:25:13;;;;;;;3.17;2.60;;;28.00;65.50;;;;;;10546732;28;20097;-31
2023/08/26 20:30:15;;;;;;;3.85;2.42;;;28.00;65.50;;;;;;10537169;28;20063;-35
2023/08/26 20:35:18;;;;;;;2.03;1.83;;;28.00;65.40;;;;;;10536564;28;20127;-38
2023/08/26 20:40:22;;;;;;;2.58;1.88;;;27.90;65.20;;;;;;10541707;28;20055;-41
2023/08/26 20:45:25;;;;;;;2.53;1.58;;;27.90;65.00;;;;;;10540352;28;20051;-39
2023/08/26 20:50:27;;;;;;;1.90;1.40;;;27.80;65.00;;;;;;10530922;28;20101;-34
2023/08/26 20:55:31;;;;;;;1.95;1.48;;;27.80;64.80;;;;;;10537196;28;20078;-32
2023/08/26 21:00:33;;;;;;;2.08;1.20;;;27.70;64.40;;;;;;10531847;28;20054;-36
2023/08/26 21:05:35;;;;;;;2.38;1.17;;;27.70;64.70;;;;;;10536984;28;20386;-38
2023/08/26 21:10:38;;;;;;;1.40;1.00;;;27.60;64.50;;;;;;10525645;28;20078;-30
2023/08/26 21:15:40;;;;;;;2.22;1.15;;;27.60;64.80;;;;;;10535081;28;20128;-31
2023/08/26 21:20:42;;;;;;;2.30;1.30;;;27.50;64.50;;;;;;10535088;28;20098;-36
2023/08/26 21:25:45;;;;;;;1.30;1.02;;;27.50;64.40;;;;;;10535203;28;20048;-34
2023/08/26 21:30:47;;;;;;;1.63;1.20;;;27.40;64.60;;;;;;10535286;28;20075;-34
2023/08/26 21:35:49;;;;;;;1.38;0.90;;;27.40;64.60;;;;;;10535211;28;20095;-34
2023/08/26 21:40:52;;;;;;;1.00;0.90;;;27.30;64.50;;;;;;10534093;28;20469;-35
2023/08/26 21:45:54;;;;;;;3.00;0.90;;;27.30;64.60;;;;;;10517675;28;20473;-40
2023/08/26 21:50:56;;;;;;;1.08;0.90;;;27.30;64.60;;;;;;10534690;28;20083;-34
2023/08/26 21:56:00;;;;;;;1.75;1.08;;;27.20;64.40;;;;;;10532371;28;20047;-34
2023/08/26 22:01:02;;;;;;;1.08;0.77;;;27.20;64.50;;;;;;10533048;28;20500;-38
2023/08/26 22:06:04;;;;;;;1.88;1.10;;;27.20;64.30;;;;;;10541376;28;20101;-36
2023/08/26 22:11:08;;;;;;;2.30;1.40;;;27.00;64.10;;;;;;10529987;28;20097;-38
2023/08/26 22:16:09;;;;;;;2.00;1.27;;;27.00;64.30;;;;;;10530276;28;20131;-32
2023/08/26 22:21:11;;;;;;;3.10;1.48;;;27.00;63.90;;;;;;10532682;28;20470;-31
2023/08/26 22:26:15;;;;;;;2.30;1.20;;;27.00;64.10;;;;;;10532704;28;20102;-32
2023/08/26 22:31:16;;;;;;;3.30;1.40;;;27.00;64.30;;;;;;10531959;28;20130;-33
2023/08/26 22:36:18;;;;;;;1.92;1.25;;;26.90;64.20;;;;;;10533787;28;20138;-32
2023/08/26 22:41:22;;;;;;;2.17;1.30;;;26.90;64.30;;;;;;10532086;28;20047;-33
2023/08/26 22:46:23;;;;;;;2.30;1.42;;;26.80;64.20;;;;;;10531680;28;20492;-35
2023/08/26 22:51:25;;;;;;;3.83;2.20;;;26.80;64.20;;;;;;10531192;28;20079;-33
2023/08/26 22:56:29;;;;;;;3.22;1.83;;;26.80;63.40;;;;;;10531791;28;20043;-32
2023/08/26 23:01:31;;;;;;;3.13;2.25;;;26.70;63.70;;;;;;10527002;28;20086;-33
2023/08/26 23:06:33;;;;;;;3.90;2.42;;;26.60;63.50;;;;;;10533627;28;20094;-32
2023/08/26 23:11:36;;;;;;;3.85;2.50;;;26.60;63.50;;;;;;10531309;28;20079;-41
2023/08/26 23:16:38;;;;;;;3.53;2.60;;;26.50;63.20;;;;;;10530308;28;20492;-33
2023/08/26 23:21:40;;;;;;;5.15;3.20;;;26.40;62.90;;;;;;10530922;28;20052;-32
2023/08/26 23:26:43;;;;;;;4.60;2.58;;;26.40;63.60;;;;;;10531937;28;20044;-35
2023/08/26 23:31:45;;;;;;;3.63;2.42;;;26.30;64.10;;;;;;10538324;28;20048;-32
2023/08/26 23:36:47;;;;;;;4.95;2.63;;;26.00;64.20;;;;;;10540500;28;20040;-32
2023/08/26 23:41:50;;;;;;;7.97;2.28;;;26.00;65.20;;;;;;10539807;28;20093;-34
2023/08/26 23:46:52;;;;;;;5.32;3.50;;;25.90;64.40;;;;;;10541193;28;20047;-32
2023/08/26 23:51:54;;;;;;;6.80;3.53;;;25.80;64.50;;;;;;10538954;28;20144;-34
2023/08/26 23:56:58;;;;;;;5.40;3.05;;;25.70;64.50;;;;;;10546068;28;20052;-35
